sensor_id;sensor_type;location;lat;lon;timestamp;temperature;humidity
5775;DHT22;2913;51.120;6.772;2023-03-13T00:01:16;11.00;99.90
5775;DHT22;2913;51.120;6.772;2023-03-13T00:03:45;11.00;99.90
5775;DHT22;2913;51.120;6.772;2023-03-13T00:06:10;11.10;99.90
5775;DHT22;2913;51.120;6.772;2023-03-13T00:08:36;11.10;99.90
5775;DHT22;2913;51.120;6.772;2023-03-13T00:11:07;11.10;99.90
5775;DHT22;2913;51.120;6.772;2023-03-13T00:13:36;11.10;99.90
5775;DHT22;2913;51.120;6.772;2023-03-13T00:16:09;11.20;99.90
5775;DHT22;2913;51.120;6.772;2023-03-13T00:18:36;11.20;99.90
5775;DHT22;2913;51.120;6.772;2023-03-13T00:21:06;11.20;99.90
5775;DHT22;2913;51.120;6.772;2023-03-13T00:23:33;11.10;99.90
5775;DHT22;2913;51.120;6.772;2023-03-13T00:26:00;11.10;99.90
5775;DHT22;2913;51.120;6.772;2023-03-13T00:28:30;11.00;99.90
5775;DHT22;2913;51.120;6.772;2023-03-13T00:33:30;11.00;99.90
5775;DHT22;2913;51.120;6.772;2023-03-13T00:36:03;11.00;99.90
5775;DHT22;2913;51.120;6.772;2023-03-13T00:38:30;11.00;99.90
5775;DHT22;2913;51.120;6.772;2023-03-13T00:41:03;11.00;99.90
5775;DHT22;2913;51.120;6.772;2023-03-13T00:43:29;11.00;99.90
5775;DHT22;2913;51.120;6.772;2023-03-13T00:45:55;11.00;99.90
5775;DHT22;2913;51.120;6.772;2023-03-13T00:48:21;11.10;99.90
5775;DHT22;2913;51.120;6.772;2023-03-13T00:50:47;11.00;99.90
5775;DHT22;2913;51.120;6.772;2023-03-13T00:53:12;11.00;99.90
5775;DHT22;2913;51.120;6.772;2023-03-13T00:55:38;10.90;99.90
5775;DHT22;2913;51.120;6.772;2023-03-13T00:58:04;11.00;99.90
5775;DHT22;2913;51.120;6.772;2023-03-13T01:00:29;11.00;99.90
5775;DHT22;2913;51.120;6.772;2023-03-13T01:02:55;11.00;99.90
5775;DHT22;2913;51.120;6.772;2023-03-13T01:05:20;11.00;99.90
5775;DHT22;2913;51.120;6.772;2023-03-13T01:07:46;11.00;99.90
5775;DHT22;2913;51.120;6.772;2023-03-13T01:10:12;11.00;99.90
5775;DHT22;2913;51.120;6.772;2023-03-13T01:12:37;11.00;99.90
5775;DHT22;2913;51.120;6.772;2023-03-13T01:15:06;11.10;99.90
5775;DHT22;2913;51.120;6.772;2023-03-13T01:17:36;11.10;99.90
5775;DHT22;2913;51.120;6.772;2023-03-13T01:20:01;11.10;99.90
5775;DHT22;2913;51.120;6.772;2023-03-13T01:22:27;11.10;99.90
5775;DHT22;2913;51.120;6.772;2023-03-13T01:24:53;11.20;99.90
5775;DHT22;2913;51.120;6.772;2023-03-13T01:27:18;11.20;99.90
5775;DHT22;2913;51.120;6.772;2023-03-13T01:29:44;11.20;99.90
5775;DHT22;2913;51.120;6.772;2023-03-13T01:32:14;11.30;99.90
5775;DHT22;2913;51.120;6.772;2023-03-13T01:34:40;11.30;99.90
5775;DHT22;2913;51.120;6.772;2023-03-13T01:37:08;11.30;99.90
5775;DHT22;2913;51.120;6.772;2023-03-13T01:39:33;11.30;99.90
5775;DHT22;2913;51.120;6.772;2023-03-13T01:41:59;11.40;99.90
5775;DHT22;2913;51.120;6.772;2023-03-13T01:44:26;11.30;99.90
5775;DHT22;2913;51.120;6.772;2023-03-13T01:46:52;11.40;99.90
5775;DHT22;2913;51.120;6.772;2023-03-13T01:49:29;11.30;99.90
5775;DHT22;2913;51.120;6.772;2023-03-13T01:54:33;11.40;99.90
5775;DHT22;2913;51.120;6.772;2023-03-13T01:57:06;11.40;99.90
5775;DHT22;2913;51.120;6.772;2023-03-13T02:02:32;11.40;99.90
5775;DHT22;2913;51.120;6.772;2023-03-13T02:05:00;11.40;99.90
5775;DHT22;2913;51.120;6.772;2023-03-13T02:07:33;11.30;99.90
5775;DHT22;2913;51.120;6.772;2023-03-13T02:10:00;11.30;99.90
5775;DHT22;2913;51.120;6.772;2023-03-13T02:12:38;11.30;99.90
5775;DHT22;2913;51.120;6.772;2023-03-13T02:15:26;11.30;99.90
5775;DHT22;2913;51.120;6.772;2023-03-13T02:17:54;11.30;99.90
5775;DHT22;2913;51.120;6.772;2023-03-13T02:20:20;11.20;99.90
5775;DHT22;2913;51.120;6.772;2023-03-13T02:25:47;11.20;99.90
5775;DHT22;2913;51.120;6.772;2023-03-13T02:28:33;11.20;99.90
5775;DHT22;2913;51.120;6.772;2023-03-13T02:30:59;11.20;99.90
5775;DHT22;2913;51.120;6.772;2023-03-13T02:33:28;11.20;99.90
5775;DHT22;2913;51.120;6.772;2023-03-13T02:35:55;11.10;99.90
5775;DHT22;2913;51.120;6.772;2023-03-13T02:38:27;11.10;99.90
5775;DHT22;2913;51.120;6.772;2023-03-13T02:40:54;11.10;99.90
5775;DHT22;2913;51.120;6.772;2023-03-13T02:43:31;11.10;99.90
5775;DHT22;2913;51.120;6.772;2023-03-13T02:46:15;11.00;99.90
5775;DHT22;2913;51.120;6.772;2023-03-13T02:48:45;11.00;99.90
5775;DHT22;2913;51.120;6.772;2023-03-13T02:51:24;11.10;99.90
5775;DHT22;2913;51.120;6.772;2023-03-13T02:53:53;11.00;99.90
5775;DHT22;2913;51.120;6.772;2023-03-13T02:56:22;11.00;99.90
5775;DHT22;2913;51.120;6.772;2023-03-13T02:58:51;11.00;99.90
5775;DHT22;2913;51.120;6.772;2023-03-13T03:01:16;11.00;99.90
5775;DHT22;2913;51.120;6.772;2023-03-13T03:03:42;11.00;99.90
5775;DHT22;2913;51.120;6.772;2023-03-13T03:06:08;11.00;99.90
5775;DHT22;2913;51.120;6.772;2023-03-13T03:08:34;11.00;99.90
5775;DHT22;2913;51.120;6.772;2023-03-13T03:11:00;11.00;99.90
5775;DHT22;2913;51.120;6.772;2023-03-13T03:13:28;11.00;99.90
5775;DHT22;2913;51.120;6.772;2023-03-13T03:15:54;11.10;99.90
5775;DHT22;2913;51.120;6.772;2023-03-13T03:18:21;11.10;99.90
5775;DHT22;2913;51.120;6.772;2023-03-13T03:20:47;11.10;99.90
5775;DHT22;2913;51.120;6.772;2023-03-13T03:23:13;11.10;99.90
5775;DHT22;2913;51.120;6.772;2023-03-13T03:25:38;11.10;99.90
5775;DHT22;2913;51.120;6.772;2023-03-13T03:28:06;11.20;99.90
5775;DHT22;2913;51.120;6.772;2023-03-13T03:30:32;11.20;99.90
5775;DHT22;2913;51.120;6.772;2023-03-13T03:32:57;11.20;99.90
5775;DHT22;2913;51.120;6.772;2023-03-13T03:35:25;11.20;99.90
5775;DHT22;2913;51.120;6.772;2023-03-13T03:37:53;11.20;99.90
5775;DHT22;2913;51.120;6.772;2023-03-13T03:40:23;11.20;99.90
5775;DHT22;2913;51.120;6.772;2023-03-13T03:42:49;11.30;99.90
5775;DHT22;2913;51.120;6.772;2023-03-13T03:45:15;11.30;99.90
5775;DHT22;2913;51.120;6.772;2023-03-13T03:47:40;11.30;99.90
5775;DHT22;2913;51.120;6.772;2023-03-13T03:50:06;11.30;99.90
5775;DHT22;2913;51.120;6.772;2023-03-13T03:52:32;11.30;99.90
5775;DHT22;2913;51.120;6.772;2023-03-13T03:54:58;11.30;99.90
5775;DHT22;2913;51.120;6.772;2023-03-13T03:57:23;11.30;99.90
5775;DHT22;2913;51.120;6.772;2023-03-13T03:59:51;11.40;99.90
5775;DHT22;2913;51.120;6.772;2023-03-13T04:02:19;11.40;99.90
5775;DHT22;2913;51.120;6.772;2023-03-13T04:04:44;11.40;99.90
5775;DHT22;2913;51.120;6.772;2023-03-13T04:07:10;11.50;99.90
5775;DHT22;2913;51.120;6.772;2023-03-13T04:09:38;11.50;99.90
5775;DHT22;2913;51.120;6.772;2023-03-13T04:12:03;11.60;99.90
5775;DHT22;2913;51.120;6.772;2023-03-13T04:14:32;11.60;99.90
5775;DHT22;2913;51.120;6.772;2023-03-13T04:16:57;11.60;99.90
5775;DHT22;2913;51.120;6.772;2023-03-13T04:19:25;11.70;99.90
5775;DHT22;2913;51.120;6.772;2023-03-13T04:21:51;11.70;99.90
5775;DHT22;2913;51.120;6.772;2023-03-13T04:24:19;11.80;99.90
5775;DHT22;2913;51.120;6.772;2023-03-13T04:26:47;11.80;99.90
5775;DHT22;2913;51.120;6.772;2023-03-13T04:29:12;11.90;99.90
5775;DHT22;2913;51.120;6.772;2023-03-13T04:31:47;11.90;99.90
5775;DHT22;2913;51.120;6.772;2023-03-13T04:34:13;11.90;99.90
5775;DHT22;2913;51.120;6.772;2023-03-13T04:36:38;12.00;99.90
5775;DHT22;2913;51.120;6.772;2023-03-13T04:39:04;12.00;99.90
5775;DHT22;2913;51.120;6.772;2023-03-13T04:41:32;12.00;99.90
5775;DHT22;2913;51.120;6.772;2023-03-13T04:43:57;12.10;99.90
5775;DHT22;2913;51.120;6.772;2023-03-13T04:46:25;12.10;99.90
5775;DHT22;2913;51.120;6.772;2023-03-13T04:48:53;12.10;99.90
5775;DHT22;2913;51.120;6.772;2023-03-13T04:51:21;12.20;99.90
5775;DHT22;2913;51.120;6.772;2023-03-13T04:53:49;12.20;99.90
5775;DHT22;2913;51.120;6.772;2023-03-13T04:56:21;12.30;99.90
5775;DHT22;2913;51.120;6.772;2023-03-13T04:58:47;12.30;99.90
5775;DHT22;2913;51.120;6.772;2023-03-13T05:01:17;12.40;99.90
5775;DHT22;2913;51.120;6.772;2023-03-13T05:03:45;12.40;99.90
5775;DHT22;2913;51.120;6.772;2023-03-13T05:06:13;12.40;99.90
5775;DHT22;2913;51.120;6.772;2023-03-13T05:08:39;12.40;99.90
5775;DHT22;2913;51.120;6.772;2023-03-13T05:11:05;12.60;99.90
5775;DHT22;2913;51.120;6.772;2023-03-13T05:13:31;12.60;99.90
5775;DHT22;2913;51.120;6.772;2023-03-13T05:15:57;12.60;99.90
5775;DHT22;2913;51.120;6.772;2023-03-13T05:18:25;12.70;99.90
5775;DHT22;2913;51.120;6.772;2023-03-13T05:20:50;12.80;99.90
5775;DHT22;2913;51.120;6.772;2023-03-13T05:23:16;12.80;99.90
5775;DHT22;2913;51.120;6.772;2023-03-13T05:25:41;12.80;99.90
5775;DHT22;2913;51.120;6.772;2023-03-13T05:28:07;12.90;99.90
5775;DHT22;2913;51.120;6.772;2023-03-13T05:30:35;12.90;99.90
5775;DHT22;2913;51.120;6.772;2023-03-13T05:33:03;13.00;99.90
5775;DHT22;2913;51.120;6.772;2023-03-13T05:35:31;13.00;99.90
5775;DHT22;2913;51.120;6.772;2023-03-13T05:38:01;13.00;99.90
5775;DHT22;2913;51.120;6.772;2023-03-13T05:40:29;13.10;99.90
5775;DHT22;2913;51.120;6.772;2023-03-13T05:42:55;13.10;99.90
5775;DHT22;2913;51.120;6.772;2023-03-13T05:45:21;13.10;99.90
5775;DHT22;2913;51.120;6.772;2023-03-13T05:47:50;13.10;99.90
5775;DHT22;2913;51.120;6.772;2023-03-13T05:50:16;13.20;99.90
5775;DHT22;2913;51.120;6.772;2023-03-13T05:52:48;13.20;99.90
5775;DHT22;2913;51.120;6.772;2023-03-13T05:55:13;13.20;99.90
5775;DHT22;2913;51.120;6.772;2023-03-13T05:57:45;13.20;99.90
5775;DHT22;2913;51.120;6.772;2023-03-13T06:00:12;13.20;99.90
5775;DHT22;2913;51.120;6.772;2023-03-13T06:02:38;13.20;99.90
5775;DHT22;2913;51.120;6.772;2023-03-13T06:05:04;13.20;99.90
5775;DHT22;2913;51.120;6.772;2023-03-13T06:07:29;13.20;99.90
5775;DHT22;2913;51.120;6.772;2023-03-13T06:09:57;13.30;99.90
5775;DHT22;2913;51.120;6.772;2023-03-13T06:12:25;13.30;99.90
5775;DHT22;2913;51.120;6.772;2023-03-13T06:14:55;13.30;99.90
5775;DHT22;2913;51.120;6.772;2023-03-13T06:17:23;13.40;99.90
5775;DHT22;2913;51.120;6.772;2023-03-13T06:19:49;13.40;99.90
5775;DHT22;2913;51.120;6.772;2023-03-13T06:22:18;13.40;99.90
5775;DHT22;2913;51.120;6.772;2023-03-13T06:24:43;13.40;99.90
5775;DHT22;2913;51.120;6.772;2023-03-13T06:27:11;13.40;99.90
5775;DHT22;2913;51.120;6.772;2023-03-13T06:29:36;13.40;99.90
5775;DHT22;2913;51.120;6.772;2023-03-13T06:32:04;13.40;99.90
5775;DHT22;2913;51.120;6.772;2023-03-13T06:34:30;13.50;99.90
5775;DHT22;2913;51.120;6.772;2023-03-13T06:36:56;13.50;99.90
5775;DHT22;2913;51.120;6.772;2023-03-13T06:39:23;13.50;99.90
5775;DHT22;2913;51.120;6.772;2023-03-13T06:41:52;13.60;99.90
5775;DHT22;2913;51.120;6.772;2023-03-13T06:44:18;13.60;99.90
5775;DHT22;2913;51.120;6.772;2023-03-13T06:46:43;13.60;99.90
5775;DHT22;2913;51.120;6.772;2023-03-13T06:49:11;13.60;99.90
5775;DHT22;2913;51.120;6.772;2023-03-13T06:51:39;13.60;99.90
5775;DHT22;2913;51.120;6.772;2023-03-13T06:54:07;13.60;99.90
5775;DHT22;2913;51.120;6.772;2023-03-13T06:56:36;13.70;99.90
5775;DHT22;2913;51.120;6.772;2023-03-13T06:59:01;13.70;99.90
5775;DHT22;2913;51.120;6.772;2023-03-13T07:01:27;13.80;99.90
5775;DHT22;2913;51.120;6.772;2023-03-13T07:03:52;13.80;99.90
5775;DHT22;2913;51.120;6.772;2023-03-13T07:06:18;13.80;99.90
5775;DHT22;2913;51.120;6.772;2023-03-13T07:08:46;13.80;99.90
5775;DHT22;2913;51.120;6.772;2023-03-13T07:11:14;13.80;99.90
5775;DHT22;2913;51.120;6.772;2023-03-13T07:13:40;13.80;99.90
5775;DHT22;2913;51.120;6.772;2023-03-13T07:16:11;13.90;99.90
5775;DHT22;2913;51.120;6.772;2023-03-13T07:18:38;13.90;99.90
5775;DHT22;2913;51.120;6.772;2023-03-13T07:21:08;13.90;99.90
5775;DHT22;2913;51.120;6.772;2023-03-13T07:23:35;13.90;99.90
5775;DHT22;2913;51.120;6.772;2023-03-13T07:26:05;13.90;99.90
5775;DHT22;2913;51.120;6.772;2023-03-13T07:28:31;13.90;99.90
5775;DHT22;2913;51.120;6.772;2023-03-13T07:31:14;13.90;99.90
5775;DHT22;2913;51.120;6.772;2023-03-13T07:33:40;14.00;99.90
5775;DHT22;2913;51.120;6.772;2023-03-13T07:36:06;14.00;99.90
5775;DHT22;2913;51.120;6.772;2023-03-13T07:38:32;14.00;99.90
5775;DHT22;2913;51.120;6.772;2023-03-13T07:40:58;14.00;99.90
5775;DHT22;2913;51.120;6.772;2023-03-13T07:43:27;14.10;99.90
5775;DHT22;2913;51.120;6.772;2023-03-13T07:46:04;14.10;99.90
5775;DHT22;2913;51.120;6.772;2023-03-13T07:48:35;14.10;99.90
5775;DHT22;2913;51.120;6.772;2023-03-13T07:51:02;14.10;99.90
5775;DHT22;2913;51.120;6.772;2023-03-13T07:53:28;14.10;99.90
5775;DHT22;2913;51.120;6.772;2023-03-13T07:56:04;14.10;99.90
5775;DHT22;2913;51.120;6.772;2023-03-13T07:58:33;14.10;99.90
5775;DHT22;2913;51.120;6.772;2023-03-13T08:01:10;14.10;99.90
5775;DHT22;2913;51.120;6.772;2023-03-13T08:03:39;14.10;99.90
5775;DHT22;2913;51.120;6.772;2023-03-13T08:06:11;14.10;99.90
5775;DHT22;2913;51.120;6.772;2023-03-13T08:08:41;14.10;99.90
5775;DHT22;2913;51.120;6.772;2023-03-13T08:11:09;14.10;99.90
5775;DHT22;2913;51.120;6.772;2023-03-13T08:13:35;14.10;99.90
5775;DHT22;2913;51.120;6.772;2023-03-13T08:18:35;14.10;99.90
5775;DHT22;2913;51.120;6.772;2023-03-13T08:21:14;14.10;99.90
5775;DHT22;2913;51.120;6.772;2023-03-13T08:23:41;14.10;99.90
5775;DHT22;2913;51.120;6.772;2023-03-13T08:26:10;14.20;99.90
5775;DHT22;2913;51.120;6.772;2023-03-13T08:28:37;14.20;99.90
5775;DHT22;2913;51.120;6.772;2023-03-13T08:31:23;14.20;99.90
5775;DHT22;2913;51.120;6.772;2023-03-13T08:33:49;14.30;99.90
5775;DHT22;2913;51.120;6.772;2023-03-13T08:38:53;14.30;99.90
5775;DHT22;2913;51.120;6.772;2023-03-13T08:41:21;14.40;99.90
5775;DHT22;2913;51.120;6.772;2023-03-13T08:43:47;14.30;99.90
5775;DHT22;2913;51.120;6.772;2023-03-13T08:46:15;14.40;99.90
5775;DHT22;2913;51.120;6.772;2023-03-13T08:48:41;14.40;99.90
5775;DHT22;2913;51.120;6.772;2023-03-13T08:51:10;14.50;99.90
5775;DHT22;2913;51.120;6.772;2023-03-13T08:53:38;14.50;99.90
5775;DHT22;2913;51.120;6.772;2023-03-13T08:56:04;14.50;99.90
5775;DHT22;2913;51.120;6.772;2023-03-13T08:58:30;14.50;99.90
5775;DHT22;2913;51.120;6.772;2023-03-13T09:01:08;14.50;99.90
5775;DHT22;2913;51.120;6.772;2023-03-13T09:03:36;14.50;99.90
5775;DHT22;2913;51.120;6.772;2023-03-13T09:06:02;14.50;99.90
5775;DHT22;2913;51.120;6.772;2023-03-13T09:08:33;14.50;99.90
5775;DHT22;2913;51.120;6.772;2023-03-13T09:11:02;14.60;99.90
5775;DHT22;2913;51.120;6.772;2023-03-13T09:13:32;14.60;99.90
5775;DHT22;2913;51.120;6.772;2023-03-13T09:18:32;14.60;99.90
5775;DHT22;2913;51.120;6.772;2023-03-13T09:20:58;14.60;99.90
5775;DHT22;2913;51.120;6.772;2023-03-13T09:23:29;14.50;99.90
5775;DHT22;2913;51.120;6.772;2023-03-13T09:25:56;14.60;99.90
5775;DHT22;2913;51.120;6.772;2023-03-13T09:28:23;14.80;99.90
5775;DHT22;2913;51.120;6.772;2023-03-13T09:30:53;14.80;99.90
5775;DHT22;2913;51.120;6.772;2023-03-13T09:33:19;14.90;99.90
5775;DHT22;2913;51.120;6.772;2023-03-13T09:35:50;14.80;99.90
5775;DHT22;2913;51.120;6.772;2023-03-13T09:38:20;15.00;99.90
5775;DHT22;2913;51.120;6.772;2023-03-13T09:40:49;15.10;99.90
5775;DHT22;2913;51.120;6.772;2023-03-13T09:49:32;15.00;99.90
5775;DHT22;2913;51.120;6.772;2023-03-13T09:54:44;15.10;99.90
5775;DHT22;2913;51.120;6.772;2023-03-13T09:57:15;15.30;99.90
5775;DHT22;2913;51.120;6.772;2023-03-13T09:59:52;15.50;99.90
5775;DHT22;2913;51.120;6.772;2023-03-13T10:02:32;15.80;99.90
5775;DHT22;2913;51.120;6.772;2023-03-13T10:05:17;15.90;99.90
5775;DHT22;2913;51.120;6.772;2023-03-13T10:07:47;16.10;99.90
5775;DHT22;2913;51.120;6.772;2023-03-13T10:10:18;16.30;99.90
5775;DHT22;2913;51.120;6.772;2023-03-13T10:12:51;16.30;99.90
5775;DHT22;2913;51.120;6.772;2023-03-13T10:15:25;16.30;99.90
5775;DHT22;2913;51.120;6.772;2023-03-13T10:17:52;16.30;99.90
5775;DHT22;2913;51.120;6.772;2023-03-13T10:22:49;16.50;99.90
5775;DHT22;2913;51.120;6.772;2023-03-13T10:27:55;16.60;99.90
5775;DHT22;2913;51.120;6.772;2023-03-13T10:30:26;16.80;99.90
5775;DHT22;2913;51.120;6.772;2023-03-13T10:32:59;16.70;99.90
5775;DHT22;2913;51.120;6.772;2023-03-13T10:35:35;16.70;99.90
5775;DHT22;2913;51.120;6.772;2023-03-13T10:38:21;16.60;99.90
5775;DHT22;2913;51.120;6.772;2023-03-13T10:41:09;16.70;99.90
5775;DHT22;2913;51.120;6.772;2023-03-13T10:43:53;16.90;99.90
5775;DHT22;2913;51.120;6.772;2023-03-13T10:46:30;17.00;99.90
5775;DHT22;2913;51.120;6.772;2023-03-13T10:49:00;16.90;99.90
5775;DHT22;2913;51.120;6.772;2023-03-13T10:51:37;17.10;99.90
5775;DHT22;2913;51.120;6.772;2023-03-13T10:54:24;17.10;99.90
5775;DHT22;2913;51.120;6.772;2023-03-13T10:59:46;17.30;99.90
5775;DHT22;2913;51.120;6.772;2023-03-13T11:02:26;17.30;99.90
5775;DHT22;2913;51.120;6.772;2023-03-13T11:04:54;17.10;99.90
5775;DHT22;2913;51.120;6.772;2023-03-13T11:07:34;17.00;99.90
5775;DHT22;2913;51.120;6.772;2023-03-13T11:10:27;17.00;99.90
5775;DHT22;2913;51.120;6.772;2023-03-13T11:12:58;17.00;99.90
5775;DHT22;2913;51.120;6.772;2023-03-13T11:15:28;17.00;99.90
5775;DHT22;2913;51.120;6.772;2023-03-13T11:20:39;17.10;99.90
5775;DHT22;2913;51.120;6.772;2023-03-13T11:31:23;17.10;99.90
5775;DHT22;2913;51.120;6.772;2023-03-13T11:34:14;17.10;99.90
5775;DHT22;2913;51.120;6.772;2023-03-13T11:37:13;17.10;99.90
5775;DHT22;2913;51.120;6.772;2023-03-13T11:51:02;17.50;99.90
5775;DHT22;2913;51.120;6.772;2023-03-13T11:56:40;17.50;99.90
5775;DHT22;2913;51.120;6.772;2023-03-13T12:01:52;17.90;99.90
5775;DHT22;2913;51.120;6.772;2023-03-13T12:04:27;18.20;99.90
5775;DHT22;2913;51.120;6.772;2023-03-13T12:07:01;18.20;99.90
5775;DHT22;2913;51.120;6.772;2023-03-13T12:09:44;18.10;99.90
5775;DHT22;2913;51.120;6.772;2023-03-13T12:15:37;18.00;99.90
5775;DHT22;2913;51.120;6.772;2023-03-13T12:18:24;18.00;99.90
5775;DHT22;2913;51.120;6.772;2023-03-13T12:21:13;17.80;99.90
5775;DHT22;2913;51.120;6.772;2023-03-13T12:28:57;17.90;99.90
5775;DHT22;2913;51.120;6.772;2023-03-13T12:31:49;18.00;99.90
5775;DHT22;2913;51.120;6.772;2023-03-13T12:34:34;18.00;99.90
5775;DHT22;2913;51.120;6.772;2023-03-13T12:37:33;17.90;99.90
5775;DHT22;2913;51.120;6.772;2023-03-13T12:40:28;17.90;99.90
5775;DHT22;2913;51.120;6.772;2023-03-13T12:43:25;17.80;99.90
5775;DHT22;2913;51.120;6.772;2023-03-13T12:48:56;17.70;99.90
5775;DHT22;2913;51.120;6.772;2023-03-13T12:56:46;17.60;99.90
5775;DHT22;2913;51.120;6.772;2023-03-13T12:59:34;17.70;99.90
5775;DHT22;2913;51.120;6.772;2023-03-13T13:02:01;17.60;99.90
5775;DHT22;2913;51.120;6.772;2023-03-13T13:04:33;17.60;99.90
5775;DHT22;2913;51.120;6.772;2023-03-13T13:12:41;17.50;99.90
5775;DHT22;2913;51.120;6.772;2023-03-13T13:15:19;17.50;99.90
5775;DHT22;2913;51.120;6.772;2023-03-13T13:18:22;17.50;99.90
5775;DHT22;2913;51.120;6.772;2023-03-13T13:23:43;17.60;99.90
5775;DHT22;2913;51.120;6.772;2023-03-13T13:28:56;18.00;99.90
5775;DHT22;2913;51.120;6.772;2023-03-13T13:31:59;18.00;99.90
5775;DHT22;2913;51.120;6.772;2023-03-13T13:47:28;17.80;99.90
5775;DHT22;2913;51.120;6.772;2023-03-13T13:49:58;17.70;99.90
5775;DHT22;2913;51.120;6.772;2023-03-13T13:52:40;17.70;99.90
5775;DHT22;2913;51.120;6.772;2023-03-13T13:58:17;17.70;99.90
5775;DHT22;2913;51.120;6.772;2023-03-13T14:03:29;17.70;99.90
5775;DHT22;2913;51.120;6.772;2023-03-13T14:05:59;17.60;99.90
5775;DHT22;2913;51.120;6.772;2023-03-13T14:08:36;17.70;99.90
5775;DHT22;2913;51.120;6.772;2023-03-13T14:16:36;17.90;99.90
5775;DHT22;2913;51.120;6.772;2023-03-13T14:19:03;18.00;99.90
5775;DHT22;2913;51.120;6.772;2023-03-13T14:21:28;17.90;99.90
5775;DHT22;2913;51.120;6.772;2023-03-13T14:23:54;17.70;99.90
5775;DHT22;2913;51.120;6.772;2023-03-13T14:26:28;17.80;99.90
5775;DHT22;2913;51.120;6.772;2023-03-13T14:28:59;17.80;99.90
5775;DHT22;2913;51.120;6.772;2023-03-13T14:31:37;17.90;99.90
5775;DHT22;2913;51.120;6.772;2023-03-13T14:34:05;17.80;99.90
5775;DHT22;2913;51.120;6.772;2023-03-13T14:36:45;17.80;99.90
5775;DHT22;2913;51.120;6.772;2023-03-13T14:39:18;17.70;99.90
5775;DHT22;2913;51.120;6.772;2023-03-13T14:41:44;17.50;99.90
5775;DHT22;2913;51.120;6.772;2023-03-13T14:46:45;17.40;99.90
5775;DHT22;2913;51.120;6.772;2023-03-13T14:49:20;17.40;99.90
5775;DHT22;2913;51.120;6.772;2023-03-13T14:51:49;17.40;99.90
5775;DHT22;2913;51.120;6.772;2023-03-13T14:54:28;17.40;99.90
5775;DHT22;2913;51.120;6.772;2023-03-13T14:57:15;17.40;99.90
5775;DHT22;2913;51.120;6.772;2023-03-13T14:59:42;17.30;99.90
5775;DHT22;2913;51.120;6.772;2023-03-13T15:02:28;17.30;99.90
5775;DHT22;2913;51.120;6.772;2023-03-13T15:05:02;17.20;99.90
5775;DHT22;2913;51.120;6.772;2023-03-13T15:12:54;17.00;99.90
5775;DHT22;2913;51.120;6.772;2023-03-13T15:15:20;17.00;99.90
5775;DHT22;2913;51.120;6.772;2023-03-13T15:17:48;16.90;99.90
5775;DHT22;2913;51.120;6.772;2023-03-13T15:20:14;16.90;99.90
5775;DHT22;2913;51.120;6.772;2023-03-13T15:22:44;16.90;99.90
5775;DHT22;2913;51.120;6.772;2023-03-13T15:25:18;16.90;99.90
5775;DHT22;2913;51.120;6.772;2023-03-13T15:27:44;17.00;99.90
5775;DHT22;2913;51.120;6.772;2023-03-13T15:30:18;17.00;99.90
5775;DHT22;2913;51.120;6.772;2023-03-13T15:32:47;17.00;99.90
5775;DHT22;2913;51.120;6.772;2023-03-13T15:35:32;17.00;99.90
5775;DHT22;2913;51.120;6.772;2023-03-13T15:37:59;17.00;99.90
5775;DHT22;2913;51.120;6.772;2023-03-13T15:40:27;16.90;99.90
5775;DHT22;2913;51.120;6.772;2023-03-13T15:42:53;17.00;99.90
5775;DHT22;2913;51.120;6.772;2023-03-13T15:45:22;17.10;99.90
5775;DHT22;2913;51.120;6.772;2023-03-13T15:47:48;17.10;99.90
5775;DHT22;2913;51.120;6.772;2023-03-13T15:50:16;17.10;99.90
5775;DHT22;2913;51.120;6.772;2023-03-13T15:52:43;17.20;99.90
5775;DHT22;2913;51.120;6.772;2023-03-13T15:55:11;17.20;99.90
5775;DHT22;2913;51.120;6.772;2023-03-13T15:57:43;17.30;99.90
5775;DHT22;2913;51.120;6.772;2023-03-13T16:00:28;17.30;99.90
5775;DHT22;2913;51.120;6.772;2023-03-13T16:02:56;17.30;99.90
5775;DHT22;2913;51.120;6.772;2023-03-13T16:05:21;17.30;99.90
5775;DHT22;2913;51.120;6.772;2023-03-13T16:07:47;17.30;99.90
5775;DHT22;2913;51.120;6.772;2023-03-13T16:10:21;17.30;99.90
5775;DHT22;2913;51.120;6.772;2023-03-13T16:12:50;17.20;99.90
5775;DHT22;2913;51.120;6.772;2023-03-13T16:15:15;17.10;99.90
5775;DHT22;2913;51.120;6.772;2023-03-13T16:17:41;17.00;99.90
5775;DHT22;2913;51.120;6.772;2023-03-13T16:20:16;17.10;99.90
5775;DHT22;2913;51.120;6.772;2023-03-13T16:22:42;17.10;99.90
5775;DHT22;2913;51.120;6.772;2023-03-13T16:25:11;17.00;99.90
5775;DHT22;2913;51.120;6.772;2023-03-13T16:27:37;17.00;99.90
5775;DHT22;2913;51.120;6.772;2023-03-13T16:32:41;16.80;99.90
5775;DHT22;2913;51.120;6.772;2023-03-13T16:35:07;16.60;99.90
5775;DHT22;2913;51.120;6.772;2023-03-13T16:37:32;16.60;99.90
5775;DHT22;2913;51.120;6.772;2023-03-13T16:39:58;16.50;99.90
5775;DHT22;2913;51.120;6.772;2023-03-13T16:42:26;16.40;99.90
5775;DHT22;2913;51.120;6.772;2023-03-13T16:44:52;16.30;99.90
5775;DHT22;2913;51.120;6.772;2023-03-13T16:47:21;16.30;99.90
5775;DHT22;2913;51.120;6.772;2023-03-13T16:52:14;16.20;99.90
5775;DHT22;2913;51.120;6.772;2023-03-13T16:54:40;16.10;99.90
5775;DHT22;2913;51.120;6.772;2023-03-13T16:57:17;16.00;99.90
5775;DHT22;2913;51.120;6.772;2023-03-13T16:59:44;16.00;99.90
5775;DHT22;2913;51.120;6.772;2023-03-13T17:02:14;15.90;99.90
5775;DHT22;2913;51.120;6.772;2023-03-13T17:04:40;15.90;99.90
5775;DHT22;2913;51.120;6.772;2023-03-13T17:07:27;15.80;99.90
5775;DHT22;2913;51.120;6.772;2023-03-13T17:09:54;15.80;99.90
5775;DHT22;2913;51.120;6.772;2023-03-13T17:12:19;15.70;99.90
5775;DHT22;2913;51.120;6.772;2023-03-13T17:14:45;15.70;99.90
5775;DHT22;2913;51.120;6.772;2023-03-13T17:17:20;15.60;99.90
5775;DHT22;2913;51.120;6.772;2023-03-13T17:19:46;15.60;99.90
5775;DHT22;2913;51.120;6.772;2023-03-13T17:22:15;15.60;99.90
5775;DHT22;2913;51.120;6.772;2023-03-13T17:24:42;15.50;99.90
5775;DHT22;2913;51.120;6.772;2023-03-13T17:27:12;15.50;99.90
5775;DHT22;2913;51.120;6.772;2023-03-13T17:29:38;15.40;99.90
5775;DHT22;2913;51.120;6.772;2023-03-13T17:32:04;15.40;99.90
5775;DHT22;2913;51.120;6.772;2023-03-13T17:34:33;15.40;99.90
5775;DHT22;2913;51.120;6.772;2023-03-13T17:36:58;15.30;99.90
5775;DHT22;2913;51.120;6.772;2023-03-13T17:39:25;15.30;99.90
5775;DHT22;2913;51.120;6.772;2023-03-13T17:41:53;15.30;99.90
5775;DHT22;2913;51.120;6.772;2023-03-13T17:44:19;15.30;99.90
5775;DHT22;2913;51.120;6.772;2023-03-13T17:46:46;15.20;99.90
5775;DHT22;2913;51.120;6.772;2023-03-13T17:49:16;15.20;99.90
5775;DHT22;2913;51.120;6.772;2023-03-13T17:51:42;15.20;99.90
5775;DHT22;2913;51.120;6.772;2023-03-13T17:54:10;15.20;99.90
5775;DHT22;2913;51.120;6.772;2023-03-13T17:56:38;15.20;99.90
5775;DHT22;2913;51.120;6.772;2023-03-13T17:59:11;15.20;99.90
5775;DHT22;2913;51.120;6.772;2023-03-13T18:01:40;15.10;99.90
5775;DHT22;2913;51.120;6.772;2023-03-13T18:04:09;15.10;99.90
5775;DHT22;2913;51.120;6.772;2023-03-13T18:06:43;15.00;99.90
5775;DHT22;2913;51.120;6.772;2023-03-13T18:09:14;15.00;99.90
5775;DHT22;2913;51.120;6.772;2023-03-13T18:11:40;14.90;99.90
5775;DHT22;2913;51.120;6.772;2023-03-13T18:14:06;14.80;99.90
5775;DHT22;2913;51.120;6.772;2023-03-13T18:19:24;14.80;99.90
5775;DHT22;2913;51.120;6.772;2023-03-13T18:21:52;14.80;99.90
5775;DHT22;2913;51.120;6.772;2023-03-13T18:24:18;14.70;99.90
5775;DHT22;2913;51.120;6.772;2023-03-13T18:26:45;14.70;99.90
5775;DHT22;2913;51.120;6.772;2023-03-13T18:29:18;14.70;99.90
5775;DHT22;2913;51.120;6.772;2023-03-13T18:31:51;14.60;99.90